Time;durP1;ratioP1;P1;durP2;ratioP2;P2;SDS_P1;SDS_P2;PMS_P1;PMS_P2;Temp;Humidity;BMP_temperature;BMP_pressure;BME280_temperature;BME280_humidity;BME280_pressure;Samples;Min_cycle;Max_cycle;Signal;HPM_P1;HPM_P2
2022/04/15 00:01:43;;;;;;;5.17;3.37;;;22.80;53.10;;;;;;5019491;28;20256;-81
2022/04/15 00:04:08;;;;;;;3.47;2.80;;;22.80;53.10;;;;;;5003382;28;20189;-82
2022/04/15 00:06:34;;;;;;;3.53;3.13;;;22.80;53.00;;;;;;5019193;28;20425;-82
2022/04/15 00:09:00;;;;;;;4.93;3.50;;;22.80;53.00;;;;;;5018890;28;20256;-82
2022/04/15 00:11:26;;;;;;;4.27;3.50;;;22.80;53.00;;;;;;5018840;28;20212;-82
2022/04/15 00:13:51;;;;;;;4.10;3.17;;;22.80;52.90;;;;;;5035213;28;20187;-82
2022/04/15 00:16:17;;;;;;;5.50;3.90;;;22.80;52.90;;;;;;5036251;28;20167;-82
2022/04/15 00:18:45;;;;;;;5.10;4.27;;;22.80;52.90;;;;;;5035912;28;20172;-81
2022/04/15 00:21:11;;;;;;;3.03;2.73;;;22.80;52.90;;;;;;5036333;28;20207;-82
2022/04/15 00:23:37;;;;;;;3.80;2.70;;;22.80;52.90;;;;;;5018728;28;20420;-83
2022/04/15 00:29:28;;;;;;;3.60;3.13;;;22.80;53.00;;;;;;5036288;28;20172;-82
2022/04/15 00:31:54;;;;;;;6.93;3.97;;;22.80;53.10;;;;;;5036015;28;20463;-82
2022/04/15 00:34:20;;;;;;;4.83;2.90;;;22.80;53.10;;;;;;5017908;28;20412;-81
2022/04/15 00:36:45;;;;;;;3.50;3.03;;;22.80;53.10;;;;;;5035888;28;20434;-82
2022/04/15 00:39:11;;;;;;;3.77;3.37;;;22.80;53.00;;;;;;5035058;28;20236;-83
2022/04/15 00:41:40;;;;;;;3.27;2.97;;;22.80;53.00;;;;;;5018411;28;20176;-83
2022/04/15 00:44:06;;;;;;;4.30;3.50;;;22.80;53.00;;;;;;5035388;28;20168;-83
2022/04/15 00:49:54;;;;;;;3.03;2.73;;;22.80;52.90;;;;;;5035462;28;20379;-82
2022/04/15 00:52:21;;;;;;;5.90;2.60;;;22.80;52.90;;;;;;5035797;28;20455;-83
2022/04/15 00:54:51;;;;;;;5.67;3.20;;;22.80;53.00;;;;;;5018567;28;20180;-83
2022/04/15 00:57:22;;;;;;;2.93;2.60;;;22.80;52.90;;;;;;5018632;28;20419;-83
2022/04/15 00:59:51;;;;;;;3.23;2.93;;;22.80;52.90;;;;;;5035198;28;20422;-83
2022/04/15 01:02:18;;;;;;;5.10;3.00;;;22.80;52.90;;;;;;5035921;28;20415;-83
2022/04/15 01:04:44;;;;;;;4.30;3.33;;;22.80;52.90;;;;;;5035379;28;20408;-83
2022/04/15 01:07:14;;;;;;;4.77;3.23;;;22.80;52.90;;;;;;5035468;28;20415;-83
2022/04/15 01:09:43;;;;;;;3.53;3.20;;;22.80;52.90;;;;;;5032731;28;20172;-83
2022/04/15 01:12:10;;;;;;;4.27;2.93;;;22.80;52.90;;;;;;5034384;28;20482;-83
2022/04/15 01:14:38;;;;;;;4.57;3.80;;;22.80;52.90;;;;;;5017734;28;20419;-82
2022/04/15 01:17:04;;;;;;;4.77;3.27;;;22.80;52.90;;;;;;5033771;28;20403;-83
2022/04/15 01:19:30;;;;;;;3.60;3.00;;;22.80;52.90;;;;;;5017499;28;20411;-83
2022/04/15 01:21:58;;;;;;;4.40;3.33;;;22.80;52.90;;;;;;5017247;28;20435;-83
2022/04/15 01:24:24;;;;;;;4.50;3.33;;;22.80;52.90;;;;;;5032503;28;20404;-83
2022/04/15 01:26:50;;;;;;;5.40;3.20;;;22.80;52.90;;;;;;5034781;28;20502;-83
2022/04/15 01:29:16;;;;;;;4.17;2.90;;;22.80;52.90;;;;;;5017064;28;20187;-83
2022/04/15 01:31:42;;;;;;;4.20;2.77;;;22.80;52.80;;;;;;5034931;28;20199;-83
2022/04/15 01:34:08;;;;;;;3.70;3.13;;;22.80;52.80;;;;;;5035032;28;20415;-83
2022/04/15 01:36:33;;;;;;;3.27;2.97;;;22.80;52.80;;;;;;5034653;28;20252;-83
2022/04/15 01:39:00;;;;;;;3.50;3.20;;;22.80;53.40;;;;;;5034471;28;20180;-83
2022/04/15 01:41:26;;;;;;;4.00;2.77;;;22.80;52.80;;;;;;5017540;28;20180;-83
2022/04/15 01:43:52;;;;;;;3.13;2.80;;;22.80;52.80;;;;;;5034589;28;20445;-83
2022/04/15 01:46:18;;;;;;;4.40;3.50;;;22.80;52.80;;;;;;5034614;28;20415;-83
2022/04/15 01:48:43;;;;;;;3.13;2.70;;;22.80;52.80;;;;;;5034901;28;20178;-83
2022/04/15 01:51:09;;;;;;;4.60;2.77;;;22.80;52.80;;;;;;5034262;28;20454;-83
2022/04/15 01:53:35;;;;;;;4.57;2.60;;;22.80;52.80;;;;;;5034485;28;20179;-83
2022/04/15 01:56:05;;;;;;;3.27;2.53;;;22.80;52.80;;;;;;5016995;28;20172;-83
2022/04/15 01:58:32;;;;;;;4.20;2.93;;;22.80;52.80;;;;;;5034357;28;20152;-83
2022/04/15 02:00:58;;;;;;;3.37;2.90;;;22.80;52.80;;;;;;5017047;28;20419;-83
2022/04/15 02:03:24;;;;;;;3.57;2.27;;;22.80;52.80;;;;;;5017307;28;20415;-83
2022/04/15 02:05:50;;;;;;;3.27;2.93;;;22.80;52.80;;;;;;5016943;28;20187;-83
2022/04/15 02:08:15;;;;;;;3.30;3.00;;;22.80;52.80;;;;;;5034501;28;20211;-83
2022/04/15 02:10:41;;;;;;;3.93;2.70;;;22.80;52.80;;;;;;5033077;28;20427;-83
2022/04/15 02:13:07;;;;;;;3.00;2.50;;;22.80;52.80;;;;;;5033862;28;20156;-83
2022/04/15 02:15:33;;;;;;;5.80;2.40;;;22.80;52.80;;;;;;5033818;28;20173;-82
2022/04/15 02:17:58;;;;;;;3.47;3.03;;;22.80;52.80;;;;;;5016502;28;20180;-83
2022/04/15 02:20:27;;;;;;;2.83;2.43;;;22.80;52.80;;;;;;5015548;28;20187;-83
2022/04/15 02:22:54;;;;;;;3.23;2.93;;;22.80;52.80;;;;;;5016653;28;20199;-83
2022/04/15 02:25:19;;;;;;;6.90;2.63;;;22.80;52.80;;;;;;5016366;28;20937;-83
2022/04/15 02:27:45;;;;;;;3.80;2.73;;;22.80;52.80;;;;;;5016313;28;20502;-83
2022/04/15 02:30:11;;;;;;;2.97;2.50;;;22.80;52.80;;;;;;5016822;28;20215;-83
2022/04/15 02:32:37;;;;;;;2.73;2.53;;;22.80;52.80;;;;;;5016177;28;20200;-82
2022/04/15 02:35:03;;;;;;;3.13;2.83;;;22.80;52.80;;;;;;5016765;28;20183;-83
2022/04/15 02:37:29;;;;;;;4.23;3.40;;;22.80;52.80;;;;;;5016409;28;20180;-83
2022/04/15 02:39:55;;;;;;;5.20;3.43;;;22.80;52.80;;;;;;5033557;28;20441;-83
2022/04/15 02:42:21;;;;;;;3.17;2.83;;;22.80;52.80;;;;;;5034050;28;20184;-83
2022/04/15 02:44:47;;;;;;;2.87;2.67;;;22.80;52.80;;;;;;5016324;28;20458;-83
2022/04/15 02:47:13;;;;;;;3.07;2.80;;;22.80;52.80;;;;;;5033872;28;20194;-83
2022/04/15 02:49:38;;;;;;;5.60;2.70;;;22.90;52.90;;;;;;5033679;28;20451;-83
2022/04/15 02:52:05;;;;;;;2.53;2.33;;;22.80;52.80;;;;;;5033230;28;20636;-83
2022/04/15 02:54:30;;;;;;;2.90;2.60;;;22.80;53.40;;;;;;5033523;28;20179;-83
2022/04/15 02:56:56;;;;;;;3.07;2.43;;;22.80;52.80;;;;;;5032804;28;20435;-83
2022/04/15 02:59:22;;;;;;;3.40;2.27;;;22.90;52.90;;;;;;5033497;28;20169;-83
2022/04/15 03:01:49;;;;;;;3.90;2.60;;;22.80;52.80;;;;;;5032715;28;20184;-83
2022/04/15 03:04:17;;;;;;;2.53;2.33;;;22.80;52.80;;;;;;5016213;28;20731;-83
2022/04/15 03:06:44;;;;;;;3.03;2.67;;;22.80;52.80;;;;;;5016243;28;20420;-83
2022/04/15 03:09:10;;;;;;;2.67;2.43;;;22.80;52.80;;;;;;5033449;28;20422;-83
2022/04/15 03:11:38;;;;;;;2.90;2.50;;;22.80;52.80;;;;;;5032887;28;20451;-83
2022/04/15 03:14:05;;;;;;;3.57;3.03;;;22.90;52.90;;;;;;5017288;28;20231;-83
2022/04/15 03:16:33;;;;;;;3.77;2.73;;;22.80;52.80;;;;;;5016750;28;20426;-83
2022/04/15 03:18:59;;;;;;;3.20;2.50;;;22.80;52.80;;;;;;5017088;28;20427;-83
2022/04/15 03:21:26;;;;;;;3.20;2.37;;;22.90;52.90;;;;;;5034330;28;20437;-83
2022/04/15 03:23:53;;;;;;;2.60;2.40;;;22.90;52.90;;;;;;5016768;28;20415;-83
2022/04/15 03:26:22;;;;;;;2.80;2.33;;;22.80;52.80;;;;;;5017323;28;20423;-83
2022/04/15 03:28:48;;;;;;;2.57;2.10;;;22.80;52.80;;;;;;5034158;28;20459;-83
2022/04/15 03:31:14;;;;;;;3.50;2.27;;;22.90;52.90;;;;;;5017016;28;20451;-83
2022/04/15 03:33:40;;;;;;;2.53;2.23;;;22.80;52.80;;;;;;5019857;28;20446;-83
2022/04/15 03:36:07;;;;;;;2.40;1.83;;;22.90;52.90;;;;;;5037820;28;20169;-83
2022/04/15 03:38:33;;;;;;;3.10;2.17;;;22.80;52.80;;;;;;5021069;28;20411;-83
2022/04/15 03:40:59;;;;;;;3.00;2.60;;;22.90;52.90;;;;;;5037567;28;20486;-83
2022/04/15 03:43:25;;;;;;;3.00;2.23;;;22.80;52.80;;;;;;5037410;28;20169;-83
2022/04/15 03:45:52;;;;;;;3.13;2.63;;;22.90;52.90;;;;;;5019463;28;20178;-83
2022/04/15 03:48:18;;;;;;;2.57;2.30;;;22.90;52.90;;;;;;5036434;28;20418;-83
2022/04/15 03:50:44;;;;;;;2.80;2.20;;;22.90;52.90;;;;;;5036831;28;20415;-83
2022/04/15 03:53:10;;;;;;;2.17;1.97;;;22.90;52.90;;;;;;5016338;28;20185;-83
2022/04/15 03:55:36;;;;;;;3.23;2.40;;;22.90;52.90;;;;;;5000204;28;20162;-83
2022/04/15 03:58:02;;;;;;;3.23;2.53;;;22.90;52.90;;;;;;5015674;28;20449;-83
2022/04/15 04:00:27;;;;;;;2.37;2.17;;;22.90;52.90;;;;;;5031543;28;20427;-83
2022/04/15 04:02:55;;;;;;;2.77;2.10;;;22.90;52.90;;;;;;5036862;28;20471;-83
2022/04/15 04:05:25;;;;;;;3.83;2.50;;;22.90;52.90;;;;;;5018717;28;20180;-83
2022/04/15 04:07:51;;;;;;;3.43;2.00;;;22.90;52.90;;;;;;4987005;28;20431;-83
2022/04/15 04:13:42;;;;;;;2.43;2.20;;;22.90;52.90;;;;;;5036454;28;20454;-83
2022/04/15 04:16:08;;;;;;;5.43;2.27;;;22.80;52.90;;;;;;5019495;28;20783;-83
2022/04/15 04:18:34;;;;;;;3.33;2.40;;;22.80;52.90;;;;;;5018827;28;20410;-83
2022/04/15 04:21:00;;;;;;;3.03;2.20;;;22.80;52.90;;;;;;5036252;28;20398;-83
2022/04/15 04:23:26;;;;;;;4.07;2.73;;;22.80;52.90;;;;;;5019163;28;20423;-83
2022/04/15 04:25:52;;;;;;;3.20;2.40;;;22.80;52.90;;;;;;5003050;28;20439;-83
2022/04/15 04:28:20;;;;;;;3.30;2.60;;;22.80;52.90;;;;;;5019389;28;20433;-83
2022/04/15 04:30:46;;;;;;;3.03;2.47;;;22.80;52.80;;;;;;5019230;28;20399;-83
2022/04/15 04:33:12;;;;;;;2.30;2.10;;;22.90;52.90;;;;;;5019332;28;20423;-83
2022/04/15 04:35:39;;;;;;;3.90;3.57;;;22.80;52.80;;;;;;5019665;28;20423;-83
2022/04/15 04:38:06;;;;;;;2.60;2.40;;;22.80;52.80;;;;;;5002947;28;20423;-83
2022/04/15 04:40:36;;;;;;;2.93;2.40;;;22.80;52.80;;;;;;5000727;28;20436;-83
2022/04/15 04:43:04;;;;;;;3.10;2.30;;;22.80;52.80;;;;;;5018453;28;20423;-83
2022/04/15 04:45:32;;;;;;;3.20;2.67;;;22.80;52.90;;;;;;5036068;28;20431;-83
2022/04/15 04:48:01;;;;;;;3.07;2.20;;;22.80;53.00;;;;;;5019290;28;20781;-83
2022/04/15 04:50:28;;;;;;;3.80;2.30;;;22.80;53.00;;;;;;5036041;28;20398;-83
2022/04/15 04:52:54;;;;;;;3.13;2.13;;;22.80;53.00;;;;;;5035749;28;20479;-83
2022/04/15 04:55:23;;;;;;;3.07;2.27;;;22.80;53.00;;;;;;5035367;28;20430;-83
2022/04/15 04:57:50;;;;;;;2.90;2.20;;;22.80;53.00;;;;;;5019599;28;20419;-82
2022/04/15 05:00:17;;;;;;;3.27;2.63;;;22.80;52.90;;;;;;5019231;28;20475;-83
2022/04/15 05:02:44;;;;;;;4.03;2.70;;;22.90;53.00;;;;;;5035092;28;20431;-83
2022/04/15 05:05:11;;;;;;;2.23;2.03;;;22.80;52.90;;;;;;5036152;28;20467;-83
2022/04/15 05:07:44;;;;;;;3.87;2.80;;;22.80;52.90;;;;;;5036021;28;20407;-83
2022/04/15 05:10:10;;;;;;;2.17;1.87;;;22.80;52.90;;;;;;5001405;28;20439;-83
2022/04/15 05:12:36;;;;;;;2.50;2.30;;;22.90;53.00;;;;;;5036137;28;20458;-83
2022/04/15 05:15:02;;;;;;;2.77;2.23;;;22.90;53.00;;;;;;5034989;28;20451;-83
2022/04/15 05:17:28;;;;;;;2.20;2.00;;;22.80;52.90;;;;;;5019092;28;20196;-83
2022/04/15 05:19:54;;;;;;;3.00;2.47;;;22.90;53.00;;;;;;5036057;28;20447;-83
2022/04/15 05:22:23;;;;;;;2.93;2.07;;;22.90;53.00;;;;;;5035597;28;20241;-83
2022/04/15 05:24:49;;;;;;;2.63;2.20;;;22.90;53.10;;;;;;5034607;28;20439;-85
2022/04/15 05:27:15;;;;;;;3.47;2.20;;;22.80;53.00;;;;;;5034960;28;20438;-83
2022/04/15 05:29:41;;;;;;;2.30;1.93;;;22.90;53.00;;;;;;5018366;28;20415;-83
2022/04/15 05:32:07;;;;;;;3.00;2.40;;;22.90;53.10;;;;;;5034636;28;20204;-83
2022/04/15 05:34:32;;;;;;;3.70;2.10;;;22.90;53.10;;;;;;5035585;28;20174;-83
2022/04/15 05:36:58;;;;;;;2.40;2.20;;;22.90;53.00;;;;;;5036002;28;20180;-85
2022/04/15 05:39:24;;;;;;;2.53;2.30;;;22.90;53.10;;;;;;5035245;28;20161;-83
2022/04/15 05:45:14;;;;;;;2.53;1.90;;;22.90;53.10;;;;;;5035004;28;20140;-83
2022/04/15 05:47:40;;;;;;;3.30;2.27;;;22.80;53.10;;;;;;5034769;28;20423;-83
2022/04/15 05:50:07;;;;;;;2.40;1.87;;;22.80;53.10;;;;;;5034038;28;20422;-84
2022/04/15 05:52:33;;;;;;;2.20;2.00;;;22.80;53.00;;;;;;5011280;28;20207;-84
2022/04/15 05:54:59;;;;;;;2.33;2.13;;;22.80;53.10;;;;;;5014716;28;20419;-84
2022/04/15 05:57:25;;;;;;;3.10;1.80;;;22.80;53.10;;;;;;5033171;28;20415;-81
2022/04/15 05:59:51;;;;;;;3.47;2.07;;;22.80;53.10;;;;;;5019032;28;20411;-81
2022/04/15 06:02:16;;;;;;;2.10;1.90;;;22.90;53.10;;;;;;5035320;28;20399;-85
2022/04/15 06:04:42;;;;;;;2.20;2.00;;;22.90;53.10;;;;;;5014118;28;20248;-87
2022/04/15 06:07:09;;;;;;;3.27;2.37;;;22.80;53.00;;;;;;5014487;28;20184;-84
2022/04/15 06:09:34;;;;;;;3.03;2.57;;;22.90;53.00;;;;;;5012311;28;20176;-88
2022/04/15 06:12:00;;;;;;;5.80;2.43;;;22.90;53.00;;;;;;5014270;28;20459;-89
2022/04/15 06:14:33;;;;;;;2.70;2.10;;;22.90;53.00;;;;;;5014325;28;20192;-84
2022/04/15 06:17:01;;;;;;;4.03;2.50;;;22.90;53.00;;;;;;5034812;28;20394;-82
2022/04/15 06:19:27;;;;;;;4.13;2.60;;;22.90;53.00;;;;;;5016672;28;20814;-82
2022/04/15 06:21:53;;;;;;;2.80;1.90;;;22.90;53.00;;;;;;5018465;28;20481;-81
2022/04/15 06:24:19;;;;;;;2.90;1.97;;;22.90;53.00;;;;;;5035861;28;20426;-81
2022/04/15 06:26:46;;;;;;;4.10;2.10;;;22.90;53.00;;;;;;5035823;28;20427;-82
2022/04/15 06:29:13;;;;;;;2.10;1.90;;;22.90;53.00;;;;;;5035624;28;20426;-82
2022/04/15 06:31:44;;;;;;;4.70;2.10;;;22.90;53.00;;;;;;5035431;28;20479;-82
2022/04/15 06:34:12;;;;;;;1.83;1.60;;;22.90;52.90;;;;;;5034806;28;20456;-82
2022/04/15 06:36:40;;;;;;;3.10;2.10;;;22.90;52.90;;;;;;5035551;28;20396;-82
2022/04/15 06:39:06;;;;;;;3.20;2.07;;;22.90;53.00;;;;;;5017343;28;20442;-81
2022/04/15 06:41:34;;;;;;;2.97;2.03;;;22.90;53.00;;;;;;5017692;28;20506;-81
2022/04/15 06:47:27;;;;;;;3.13;1.90;;;22.90;53.00;;;;;;5035538;28;20379;-82
2022/04/15 06:49:53;;;;;;;2.83;2.37;;;22.90;53.00;;;;;;5017761;28;20431;-83
2022/04/15 06:52:24;;;;;;;3.00;2.03;;;22.90;53.00;;;;;;5035402;28;20506;-81
2022/04/15 06:54:49;;;;;;;3.00;2.00;;;22.90;53.00;;;;;;5034399;28;20419;-89
2022/04/15 06:57:16;;;;;;;3.57;1.90;;;22.90;53.10;;;;;;5029470;28;20434;-83
2022/04/15 06:59:42;;;;;;;2.80;2.07;;;22.90;53.10;;;;;;5015110;28;20184;-82
2022/04/15 07:02:09;;;;;;;2.10;1.93;;;22.90;53.20;;;;;;5016400;28;20434;-81
2022/04/15 07:04:36;;;;;;;3.43;2.40;;;22.90;53.20;;;;;;5034761;28;20191;-81
2022/04/15 07:07:11;;;;;;;2.37;2.17;;;22.90;53.10;;;;;;4997039;28;20403;-81
2022/04/15 07:09:37;;;;;;;3.73;2.10;;;22.90;53.10;;;;;;5017906;28;20427;-83
2022/04/15 07:12:04;;;;;;;2.73;2.30;;;22.90;53.10;;;;;;5019019;28;20443;-84
2022/04/15 07:14:30;;;;;;;3.20;2.20;;;22.90;53.10;;;;;;5003320;28;20188;-85
2022/04/15 07:17:05;;;;;;;2.07;1.87;;;22.90;53.10;;;;;;5019452;28;20423;-83
2022/04/15 07:19:58;;;;;;;2.40;1.77;;;22.90;53.10;;;;;;5032186;28;20445;-83
2022/04/15 07:22:27;;;;;;;2.40;2.20;;;22.90;53.10;;;;;;5018963;28;20431;-82
2022/04/15 07:24:52;;;;;;;2.60;2.40;;;22.90;53.10;;;;;;5019785;28;20453;-83
2022/04/15 07:27:21;;;;;;;2.37;1.80;;;22.90;53.00;;;;;;5019176;28;20430;-83
2022/04/15 07:29:50;;;;;;;2.63;1.93;;;22.90;53.00;;;;;;5037064;28;20166;-83
2022/04/15 07:32:23;;;;;;;3.73;2.23;;;22.90;53.10;;;;;;5037517;28;20462;-83
2022/04/15 07:34:56;;;;;;;3.27;2.43;;;22.90;53.10;;;;;;5019732;28;20434;-82
2022/04/15 07:37:22;;;;;;;3.63;1.60;;;22.90;53.70;;;;;;5019849;28;20419;-83
2022/04/15 07:39:49;;;;;;;1.93;1.73;;;22.90;53.10;;;;;;5037014;28;20448;-81
2022/04/15 07:42:15;;;;;;;3.10;2.10;;;22.90;53.10;;;;;;5020009;28;20427;-83
2022/04/15 07:44:44;;;;;;;2.40;1.97;;;22.90;53.10;;;;;;5020442;28;20466;-83
2022/04/15 07:47:11;;;;;;;2.87;1.93;;;23.00;53.20;;;;;;5037419;28;20423;-83
2022/04/15 07:49:38;;;;;;;2.73;2.07;;;22.90;53.10;;;;;;5036807;28;20415;-82
2022/04/15 07:52:04;;;;;;;1.93;1.60;;;23.00;53.20;;;;;;5036250;28;20485;-83
2022/04/15 07:54:31;;;;;;;4.67;2.20;;;23.00;53.20;;;;;;5019672;28;20415;-83
2022/04/15 07:56:58;;;;;;;2.43;1.80;;;23.00;53.20;;;;;;5036610;28;20466;-83
2022/04/15 07:59:25;;;;;;;2.00;1.67;;;23.00;53.80;;;;;;5037582;28;20395;-82
2022/04/15 08:01:53;;;;;;;1.97;1.80;;;23.00;53.20;;;;;;5019364;28;20176;-82
2022/04/15 08:04:22;;;;;;;4.23;1.80;;;23.00;53.20;;;;;;5036975;28;20423;-82
2022/04/15 08:06:48;;;;;;;2.50;1.93;;;23.00;53.30;;;;;;5019471;28;20427;-82
2022/04/15 08:09:15;;;;;;;4.60;2.10;;;23.00;53.30;;;;;;5002869;28;20428;-81
2022/04/15 08:11:45;;;;;;;1.70;1.60;;;23.00;53.30;;;;;;5019261;28;20455;-82
2022/04/15 08:14:39;;;;;;;2.27;2.00;;;23.00;53.30;;;;;;5003688;28;20391;-82
2022/04/15 08:17:07;;;;;;;2.03;1.83;;;23.00;53.30;;;;;;5018432;28;20439;-82
2022/04/15 08:19:35;;;;;;;2.43;2.23;;;23.00;53.30;;;;;;5018380;28;20921;-82
2022/04/15 08:22:09;;;;;;;3.03;2.20;;;23.00;53.30;;;;;;5034357;28;20430;-83
2022/04/15 08:24:39;;;;;;;2.73;2.20;;;23.00;53.30;;;;;;5019732;28;20415;-83
2022/04/15 08:27:10;;;;;;;1.90;1.70;;;23.00;53.30;;;;;;5036827;28;20435;-83
2022/04/15 08:29:42;;;;;;;1.80;1.60;;;23.00;53.30;;;;;;5037244;28;20396;-83
2022/04/15 08:32:08;;;;;;;2.80;1.83;;;23.00;53.30;;;;;;5018947;28;20463;-83
2022/04/15 08:34:37;;;;;;;3.33;1.70;;;23.00;53.30;;;;;;5019884;28;20475;-82
2022/04/15 08:37:09;;;;;;;2.27;1.73;;;23.00;53.30;;;;;;5035857;28;20415;-83
2022/04/15 08:39:39;;;;;;;2.67;2.33;;;23.00;53.30;;;;;;5019640;28;20438;-83
2022/04/15 08:42:13;;;;;;;2.17;1.80;;;23.00;53.30;;;;;;5036480;28;20425;-83
2022/04/15 08:44:47;;;;;;;2.50;2.00;;;23.00;53.40;;;;;;5002873;28;20423;-82
2022/04/15 08:47:14;;;;;;;1.67;1.57;;;23.00;53.30;;;;;;5036570;28;20462;-82
2022/04/15 08:49:41;;;;;;;2.20;1.90;;;23.00;53.30;;;;;;5019289;28;20434;-82
2022/04/15 08:52:10;;;;;;;2.37;1.80;;;23.00;53.40;;;;;;5036328;28;20478;-82
2022/04/15 08:54:36;;;;;;;2.40;1.87;;;23.00;53.40;;;;;;5019804;28;20396;-80
2022/04/15 08:57:04;;;;;;;2.40;1.93;;;23.00;53.40;;;;;;5018577;28;20400;-83
2022/04/15 08:59:33;;;;;;;2.20;2.00;;;23.10;53.40;;;;;;5019177;28;20423;-83
2022/04/15 09:02:02;;;;;;;2.63;1.80;;;23.10;53.40;;;;;;5018498;28;20430;-83
2022/04/15 09:04:32;;;;;;;1.90;1.60;;;23.00;53.40;;;;;;4986588;28;20455;-83
2022/04/15 09:07:00;;;;;;;7.73;2.10;;;23.00;53.40;;;;;;5019217;28;20418;-84
2022/04/15 09:09:33;;;;;;;3.40;2.53;;;23.10;53.50;;;;;;5001634;28;20448;-83
2022/04/15 09:12:03;;;;;;;1.83;1.73;;;23.10;53.50;;;;;;5002075;28;20463;-83
2022/04/15 09:14:29;;;;;;;3.00;2.50;;;23.10;53.50;;;;;;5018179;28;20420;-83
2022/04/15 09:16:57;;;;;;;1.70;1.53;;;23.10;53.50;;;;;;5035619;28;20498;-83
2022/04/15 09:19:22;;;;;;;2.80;1.87;;;23.10;54.00;;;;;;5035572;28;20431;-83
2022/04/15 09:22:03;;;;;;;3.60;1.70;;;23.10;53.50;;;;;;5017913;28;20437;-83
2022/04/15 09:24:37;;;;;;;4.57;1.93;;;23.10;53.50;;;;;;5035108;28;20916;-83
2022/04/15 09:27:07;;;;;;;1.97;1.63;;;23.10;53.50;;;;;;4986907;28;20419;-83
2022/04/15 09:29:38;;;;;;;2.57;2.00;;;23.10;53.50;;;;;;5017817;28;20491;-83
2022/04/15 09:32:14;;;;;;;2.53;1.90;;;23.00;53.40;;;;;;5035123;28;20474;-82
2022/04/15 09:35:06;;;;;;;1.93;1.63;;;23.10;53.50;;;;;;5001899;28;20423;-82
2022/04/15 09:37:39;;;;;;;2.43;2.20;;;23.10;53.50;;;;;;5035609;28;20772;-82
2022/04/15 09:40:15;;;;;;;2.20;2.00;;;23.10;53.60;;;;;;5018489;28;20427;-82
2022/04/15 09:42:51;;;;;;;3.07;2.30;;;23.10;53.60;;;;;;5035476;28;20391;-82
2022/04/15 09:45:23;;;;;;;2.60;1.87;;;23.10;53.60;;;;;;5018054;28;20423;-82
2022/04/15 09:48:03;;;;;;;3.20;1.90;;;23.00;53.50;;;;;;5017181;28;20488;-82
2022/04/15 09:50:42;;;;;;;2.87;1.80;;;23.10;53.60;;;;;;5017299;28;20423;-82
2022/04/15 09:53:12;;;;;;;3.13;1.40;;;23.10;53.60;;;;;;5016874;28;20439;-82
2022/04/15 09:55:46;;;;;;;2.40;2.00;;;23.10;53.60;;;;;;5016391;28;20423;-82
2022/04/15 10:01:07;;;;;;;4.10;2.23;;;23.10;53.60;;;;;;5034616;28;20395;-82
2022/04/15 10:03:41;;;;;;;1.87;1.70;;;23.10;53.60;;;;;;5032551;28;20414;-82
2022/04/15 10:06:08;;;;;;;3.43;2.00;;;23.10;53.60;;;;;;5016336;28;20415;-82
2022/04/15 10:08:34;;;;;;;2.50;2.30;;;23.10;53.60;;;;;;5017714;28;20495;-82
2022/04/15 10:11:01;;;;;;;2.97;1.90;;;23.10;53.60;;;;;;5034092;28;20415;-82
2022/04/15 10:13:30;;;;;;;4.17;1.80;;;23.10;53.60;;;;;;5016771;28;20415;-83
2022/04/15 10:15:57;;;;;;;1.90;1.60;;;23.10;53.60;;;;;;5035224;28;20407;-83
2022/04/15 10:18:23;;;;;;;2.77;1.90;;;23.10;53.50;;;;;;5017499;28;20459;-83
2022/04/15 10:20:51;;;;;;;2.60;2.10;;;23.10;53.50;;;;;;5015306;28;20443;-83
2022/04/15 10:23:19;;;;;;;2.80;1.80;;;23.10;53.50;;;;;;5016023;28;20422;-83
2022/04/15 10:25:46;;;;;;;2.23;1.83;;;23.10;53.50;;;;;;5000896;28;20422;-83
2022/04/15 10:28:15;;;;;;;1.70;1.60;;;23.10;53.60;;;;;;5033694;28;20479;-83
2022/04/15 10:30:51;;;;;;;3.37;2.03;;;23.10;53.50;;;;;;5016051;28;20427;-83
2022/04/15 10:33:30;;;;;;;2.07;1.53;;;23.10;53.50;;;;;;5034086;28;20434;-81
2022/04/15 10:36:15;;;;;;;1.70;1.60;;;23.10;53.60;;;;;;5001253;28;20426;-82
2022/04/15 10:39:12;;;;;;;2.23;1.90;;;23.10;53.60;;;;;;5034254;28;20427;-82
2022/04/15 10:42:04;;;;;;;2.20;1.80;;;23.10;53.60;;;;;;5033346;28;20408;-82
2022/04/15 10:44:39;;;;;;;3.03;1.70;;;23.10;53.60;;;;;;4954654;29;20464;-83
2022/04/15 10:47:26;;;;;;;1.70;1.57;;;23.10;53.60;;;;;;4939756;29;20462;-83
2022/04/15 10:50:01;;;;;;;2.20;1.47;;;23.10;53.60;;;;;;4939511;29;20419;-82
2022/04/15 10:52:31;;;;;;;1.83;1.60;;;23.10;53.60;;;;;;4939536;29;20469;-82
2022/04/15 10:55:00;;;;;;;1.60;1.50;;;23.10;53.70;;;;;;4939502;29;20419;-82
2022/04/15 10:57:47;;;;;;;1.70;1.50;;;23.10;53.70;;;;;;4955211;29;20419;-82
2022/04/15 11:03:21;;;;;;;2.33;1.93;;;23.10;53.60;;;;;;4941116;29;20414;-82
2022/04/15 11:05:48;;;;;;;2.40;1.57;;;23.10;53.70;;;;;;4937190;29;20430;-83
2022/04/15 11:08:16;;;;;;;2.03;1.77;;;23.10;53.70;;;;;;4937298;29;20438;-84
2022/04/15 11:10:58;;;;;;;1.40;1.30;;;23.10;53.70;;;;;;4953912;29;20422;-82
2022/04/15 11:13:40;;;;;;;2.50;2.00;;;23.10;53.70;;;;;;4939239;29;20419;-82
2022/04/15 11:18:55;;;;;;;1.50;1.37;;;23.10;53.70;;;;;;4953158;29;20414;-82
2022/04/15 11:21:37;;;;;;;2.23;1.70;;;23.10;53.70;;;;;;4993367;28;20466;-82
2022/04/15 11:24:16;;;;;;;2.03;1.90;;;23.10;53.70;;;;;;5017455;28;20395;-82
2022/04/15 11:26:46;;;;;;;1.50;1.40;;;23.10;53.70;;;;;;5032258;28;20437;-83
2022/04/15 11:29:14;;;;;;;1.87;1.40;;;23.10;53.70;;;;;;5016660;28;20445;-82
2022/04/15 11:31:49;;;;;;;1.90;1.50;;;23.10;53.70;;;;;;5034260;28;20455;-82
2022/04/15 11:34:20;;;;;;;2.27;1.70;;;23.10;53.70;;;;;;5017441;28;20418;-82
2022/04/15 11:36:53;;;;;;;2.87;1.60;;;23.20;53.70;;;;;;5018054;28;20419;-82
2022/04/15 11:39:21;;;;;;;2.50;1.50;;;23.10;53.70;;;;;;5017586;28;20416;-82
2022/04/15 11:41:54;;;;;;;1.73;1.60;;;23.10;53.70;;;;;;5035096;28;20403;-82
2022/04/15 11:44:21;;;;;;;1.80;1.57;;;23.20;53.70;;;;;;5017798;28;20391;-82
2022/04/15 11:46:52;;;;;;;1.73;1.63;;;23.10;53.60;;;;;;5017044;28;20446;-82
2022/04/15 11:49:22;;;;;;;2.47;1.60;;;23.10;53.60;;;;;;5034130;28;20419;-82
2022/04/15 11:51:54;;;;;;;2.80;2.43;;;23.20;53.80;;;;;;5033812;28;20470;-82
2022/04/15 11:54:24;;;;;;;4.23;2.10;;;23.20;53.70;;;;;;5020737;28;20415;-82
2022/04/15 11:56:57;;;;;;;1.30;1.20;;;23.20;53.70;;;;;;5037317;28;20406;-82
2022/04/15 11:59:24;;;;;;;2.70;1.80;;;23.20;53.70;;;;;;5037212;28;20408;-82
2022/04/15 12:01:51;;;;;;;4.07;1.60;;;23.20;53.70;;;;;;5037240;28;20435;-83
2022/04/15 12:04:17;;;;;;;2.30;1.70;;;23.20;53.70;;;;;;5037229;28;20475;-83
2022/04/15 12:06:43;;;;;;;2.17;1.80;;;23.20;53.70;;;;;;5020062;28;20416;-83
2022/04/15 12:09:16;;;;;;;2.77;1.50;;;23.20;53.70;;;;;;5037403;28;20418;-83
2022/04/15 12:11:42;;;;;;;1.63;1.53;;;23.20;53.70;;;;;;5037518;28;20180;-83
2022/04/15 12:14:09;;;;;;;2.23;1.30;;;23.20;53.70;;;;;;5036664;28;20407;-83
2022/04/15 12:16:39;;;;;;;1.77;1.67;;;23.20;53.70;;;;;;5037599;28;20768;-83
2022/04/15 12:19:06;;;;;;;1.80;1.70;;;23.20;53.70;;;;;;5037262;28;20454;-83
2022/04/15 12:21:33;;;;;;;1.50;1.30;;;23.20;53.70;;;;;;5016914;28;20468;-83
2022/04/15 12:24:22;;;;;;;1.73;1.50;;;23.20;53.70;;;;;;5016525;28;20420;-82
2022/04/15 12:26:50;;;;;;;1.63;1.40;;;23.20;53.70;;;;;;5000967;28;20435;-82
2022/04/15 12:32:16;;;;;;;1.80;1.50;;;23.20;53.70;;;;;;5016661;28;20451;-82
2022/04/15 12:34:46;;;;;;;1.93;1.63;;;23.20;53.70;;;;;;5029506;28;20427;-82
2022/04/15 12:37:36;;;;;;;1.70;1.30;;;23.20;53.70;;;;;;5034066;28;20419;-83
2022/04/15 12:40:12;;;;;;;1.63;1.50;;;23.20;53.70;;;;;;5036388;28;20438;-82
2022/04/15 12:42:40;;;;;;;1.80;1.70;;;23.10;53.70;;;;;;5036300;28;20395;-83
2022/04/15 12:45:09;;;;;;;1.93;1.20;;;23.20;53.80;;;;;;5035609;28;20466;-83
2022/04/15 12:47:36;;;;;;;2.70;1.40;;;23.20;53.80;;;;;;5015710;28;20425;-84
2022/04/15 12:50:24;;;;;;;1.70;1.60;;;23.20;53.70;;;;;;5016105;28;20420;-84
2022/04/15 12:52:52;;;;;;;1.70;1.30;;;23.20;53.70;;;;;;5035263;28;20515;-84
2022/04/15 12:55:26;;;;;;;3.30;1.60;;;23.20;53.70;;;;;;5035861;28;20412;-83
2022/04/15 12:57:52;;;;;;;1.83;1.63;;;23.20;53.70;;;;;;5036805;28;20417;-84
2022/04/15 13:00:18;;;;;;;2.03;1.20;;;23.20;53.70;;;;;;5035778;28;20455;-83
2022/04/15 13:02:44;;;;;;;2.30;1.53;;;23.20;53.70;;;;;;5019106;28;20180;-83
2022/04/15 13:05:13;;;;;;;1.70;1.43;;;23.20;53.70;;;;;;5035663;28;20430;-83
2022/04/15 13:07:39;;;;;;;1.47;1.37;;;23.20;53.70;;;;;;5018995;28;20188;-83
2022/04/15 13:10:10;;;;;;;3.27;1.73;;;23.20;53.70;;;;;;5036627;28;20439;-83
2022/04/15 13:12:39;;;;;;;1.53;1.40;;;23.20;53.70;;;;;;5035177;28;20868;-83
2022/04/15 13:15:06;;;;;;;1.80;1.50;;;23.20;54.30;;;;;;5034821;28;20427;-82
2022/04/15 13:17:31;;;;;;;1.70;1.30;;;23.20;53.70;;;;;;5034505;28;20482;-83
2022/04/15 13:19:58;;;;;;;2.17;1.53;;;23.20;53.70;;;;;;5034944;28;20442;-83
2022/04/15 13:22:24;;;;;;;1.73;1.47;;;23.20;53.70;;;;;;5034995;28;20172;-83
2022/04/15 13:24:51;;;;;;;1.67;1.50;;;23.20;53.70;;;;;;5034479;28;20403;-82